createdAt,value
2018-09-13T00:00:57.633Z,992.65
2018-09-13T00:01:57.563Z,992.68
2018-09-13T00:02:57.491Z,992.66
2018-09-13T00:03:57.420Z,992.66
2018-09-13T00:04:57.347Z,992.66
2018-09-13T00:05:57.384Z,992.66
2018-09-13T00:06:57.231Z,992.66
2018-09-13T00:07:57.135Z,992.70
2018-09-13T00:08:57.057Z,992.71
2018-09-13T00:09:56.989Z,992.74
2018-09-13T00:10:56.913Z,992.77
2018-09-13T00:11:57.044Z,992.81
2018-09-13T00:12:56.768Z,992.80
2018-09-13T00:13:56.696Z,992.79
2018-09-13T00:14:56.624Z,992.81
2018-09-13T00:15:56.755Z,992.79
2018-09-13T00:16:56.520Z,992.75
2018-09-13T00:17:56.407Z,992.78
2018-09-13T00:19:58.883Z,992.76
2018-09-13T00:20:56.188Z,992.75
2018-09-13T00:21:58.799Z,992.74
2018-09-13T00:22:56.043Z,992.73
2018-09-13T00:23:55.971Z,992.74
2018-09-13T00:24:55.900Z,992.77
2018-09-13T00:25:55.827Z,992.80
2018-09-13T00:26:55.754Z,992.80
2018-09-13T00:27:55.681Z,992.79
2018-09-13T00:28:55.607Z,992.84
2018-09-13T00:29:55.535Z,992.85
2018-09-13T00:30:55.462Z,992.85
2018-09-13T00:31:55.391Z,992.87
2018-09-13T00:32:55.317Z,992.85
2018-09-13T00:33:55.246Z,992.85
2018-09-13T00:34:55.172Z,992.83
2018-09-13T00:35:55.100Z,992.84
2018-09-13T00:36:55.026Z,992.83
2018-09-13T00:37:54.954Z,992.83
2018-09-13T00:38:54.881Z,992.79
2018-09-13T00:39:54.809Z,992.79
2018-09-13T00:40:54.735Z,992.79
2018-09-13T00:41:54.668Z,992.76
2018-09-13T00:42:54.616Z,992.73
2018-09-13T00:43:54.518Z,992.71
2018-09-13T00:44:54.445Z,992.68
2018-09-13T00:45:54.373Z,992.69
2018-09-13T00:46:54.299Z,992.68
2018-09-13T00:47:54.228Z,992.67
2018-09-13T00:48:54.154Z,992.65
2018-09-13T00:49:54.081Z,992.62
2018-09-13T00:50:54.010Z,992.64
2018-09-13T00:51:53.936Z,992.61
2018-09-13T00:52:53.862Z,992.61
2018-09-13T00:53:53.792Z,992.58
2018-09-13T00:54:53.716Z,992.57
2018-09-13T00:55:53.644Z,992.56
2018-09-13T00:56:53.571Z,992.55
2018-09-13T00:57:53.498Z,992.54
2018-09-13T00:58:53.451Z,992.55
2018-09-13T00:59:53.354Z,992.54
2018-09-13T01:00:53.279Z,992.52
2018-09-13T01:01:53.207Z,992.52
2018-09-13T01:02:53.135Z,992.54
2018-09-13T01:03:53.164Z,992.57
2018-09-13T01:04:52.989Z,992.56
2018-09-13T01:05:52.919Z,992.61
2018-09-13T01:06:52.846Z,992.58
2018-09-13T01:07:52.773Z,992.60
2018-09-13T01:08:52.699Z,992.61
2018-09-13T01:09:52.626Z,992.60
2018-09-13T01:10:52.554Z,992.59
2018-09-13T01:11:52.480Z,992.62
2018-09-13T01:12:52.406Z,992.56
2018-09-13T01:13:52.335Z,992.59
2018-09-13T01:14:52.261Z,992.59
2018-09-13T01:15:52.189Z,992.55
2018-09-13T01:16:52.115Z,992.55
2018-09-13T01:17:52.057Z,992.58
2018-09-13T01:18:51.971Z,992.52
2018-09-13T01:19:51.897Z,992.47
2018-09-13T01:20:51.824Z,992.42
2018-09-13T01:21:51.753Z,992.40
2018-09-13T01:22:51.680Z,992.39
2018-09-13T01:23:51.608Z,992.42
2018-09-13T01:24:51.784Z,992.45
2018-09-13T01:25:51.462Z,992.43
2018-09-13T01:26:51.389Z,992.41
2018-09-13T01:27:51.317Z,992.41
2018-09-13T01:28:51.243Z,992.42
2018-09-13T01:29:51.203Z,992.37
2018-09-13T01:30:51.103Z,992.44
2018-09-13T01:31:51.027Z,992.32
2018-09-13T01:32:50.956Z,992.34
2018-09-13T01:33:50.880Z,992.29
2018-09-13T01:34:50.808Z,992.30
2018-09-13T01:35:51.011Z,992.27
2018-09-13T01:36:50.865Z,992.30
2018-09-13T01:37:50.592Z,992.29
2018-09-13T01:39:58.021Z,992.21
2018-09-13T01:40:57.951Z,992.19
2018-09-13T01:41:57.877Z,992.15
2018-09-13T01:42:57.802Z,992.16
2018-09-13T01:43:57.731Z,992.15
2018-09-13T01:44:57.656Z,992.15
2018-09-13T01:45:57.734Z,992.11
2018-09-13T01:46:57.510Z,992.11
2018-09-13T01:47:57.438Z,992.10
2018-09-13T01:48:57.372Z,992.07
2018-09-13T01:49:57.293Z,992.05
2018-09-13T01:50:57.268Z,992.06
2018-09-13T01:51:57.148Z,992.09
2018-09-13T01:52:57.074Z,992.06
2018-09-13T01:53:57.002Z,992.02
2018-09-13T01:54:56.928Z,992.03
2018-09-13T01:55:56.854Z,992.05
2018-09-13T01:56:56.782Z,992.10
2018-09-13T01:57:56.709Z,992.08
2018-09-13T01:58:56.635Z,992.09
2018-09-13T01:59:56.562Z,992.10
2018-09-13T02:00:56.529Z,992.17
2018-09-13T02:01:56.417Z,992.22
2018-09-13T02:02:56.343Z,992.19
2018-09-13T02:03:56.269Z,992.25
2018-09-13T02:04:56.199Z,992.29
2018-09-13T02:05:56.123Z,992.28
2018-09-13T02:06:56.051Z,992.30
2018-09-13T02:07:55.977Z,992.30
2018-09-13T02:08:55.954Z,992.24
2018-09-13T02:09:55.831Z,992.21
2018-09-13T02:10:55.756Z,992.17
2018-09-13T02:11:55.683Z,992.16
2018-09-13T02:12:55.609Z,992.13
2018-09-13T02:13:55.537Z,992.07
2018-09-13T02:14:55.462Z,992.04
2018-09-13T02:15:55.390Z,992.08
2018-09-13T02:16:55.316Z,992.11
2018-09-13T02:17:55.244Z,992.17
2018-09-13T02:18:55.174Z,992.19
2018-09-13T02:19:55.096Z,992.20
2018-09-13T02:20:55.172Z,992.22
2018-09-13T02:21:54.949Z,992.22
2018-09-13T02:22:54.875Z,992.21
2018-09-13T02:23:54.801Z,992.22
2018-09-13T02:24:54.728Z,992.20
2018-09-13T02:25:54.655Z,992.20
2018-09-13T02:26:54.881Z,992.21
2018-09-13T02:27:54.507Z,992.25
2018-09-13T02:28:54.435Z,992.27
2018-09-13T02:29:54.361Z,992.30
2018-09-13T02:30:54.287Z,992.29
2018-09-13T02:31:54.216Z,992.32
2018-09-13T02:32:54.239Z,992.32
2018-09-13T02:33:54.066Z,992.31
2018-09-13T02:34:53.993Z,992.31
2018-09-13T02:35:53.920Z,992.32
2018-09-13T02:36:53.845Z,992.29
2018-09-13T02:37:53.771Z,992.30
2018-09-13T02:38:53.798Z,992.31
2018-09-13T02:39:53.625Z,992.33
2018-09-13T02:40:53.555Z,992.29
2018-09-13T02:41:53.478Z,992.30
2018-09-13T02:42:53.403Z,992.29
2018-09-13T02:43:53.329Z,992.30
2018-09-13T02:44:53.356Z,992.26
2018-09-13T02:45:53.182Z,992.25
2018-09-13T02:46:53.107Z,992.28
2018-09-13T02:47:53.034Z,992.28
2018-09-13T02:48:52.962Z,992.26
2018-09-13T02:49:52.887Z,992.26
2018-09-13T02:50:53.113Z,992.27
2018-09-13T02:51:52.739Z,992.27
2018-09-13T02:52:52.665Z,992.28
2018-09-13T02:53:52.593Z,992.27
2018-09-13T02:54:52.516Z,992.26
2018-09-13T02:55:52.445Z,992.27
2018-09-13T02:56:52.470Z,992.24
2018-09-13T02:57:52.296Z,992.29
2018-09-13T02:58:52.223Z,992.28
2018-09-13T02:59:52.148Z,992.27
2018-09-13T03:00:52.074Z,992.25
2018-09-13T03:01:52.002Z,992.26
2018-09-13T03:02:52.030Z,992.28
2018-09-13T03:03:51.854Z,992.28
2018-09-13T03:04:51.784Z,992.24
2018-09-13T03:05:51.710Z,992.25
2018-09-13T03:06:51.631Z,992.25
2018-09-13T03:07:51.561Z,992.30
2018-09-13T03:08:51.482Z,992.29
2018-09-13T03:09:51.414Z,992.32
2018-09-13T03:10:51.335Z,992.31
2018-09-13T03:11:51.261Z,992.34
2018-09-13T03:12:51.193Z,992.32
2018-09-13T03:13:51.114Z,992.32
2018-09-13T03:14:51.041Z,992.34
2018-09-13T03:15:50.965Z,992.31
2018-09-13T03:16:50.894Z,992.31
2018-09-13T03:17:50.818Z,992.33
2018-09-13T03:18:50.746Z,992.32
2018-09-13T03:19:50.670Z,992.28
2018-09-13T03:20:50.646Z,992.29
2018-09-13T03:21:50.522Z,992.29
2018-09-13T03:22:50.448Z,992.27
2018-09-13T03:23:50.372Z,992.25
2018-09-13T03:24:50.298Z,992.25
2018-09-13T03:25:50.224Z,992.24
2018-09-13T03:26:50.151Z,992.28
2018-09-13T03:27:50.077Z,992.22
2018-09-13T03:28:50.002Z,992.26
2018-09-13T03:29:49.930Z,992.22
2018-09-13T03:30:49.865Z,992.20
2018-09-13T03:31:49.781Z,992.17
2018-09-13T03:32:49.705Z,992.20
2018-09-13T03:33:49.632Z,992.18
2018-09-13T03:34:49.558Z,992.18
2018-09-13T03:35:49.484Z,992.19
2018-09-13T03:36:49.413Z,992.18
2018-09-13T03:37:49.336Z,992.18
2018-09-13T03:38:49.312Z,992.21
2018-09-13T03:39:49.188Z,992.15
2018-09-13T03:40:49.113Z,992.11
2018-09-13T03:41:49.060Z,992.11
2018-09-13T03:42:48.965Z,992.07
2018-09-13T03:43:48.890Z,992.00
2018-09-13T03:44:48.817Z,991.99
2018-09-13T03:45:48.742Z,991.96
2018-09-13T03:46:48.668Z,991.93
2018-09-13T03:47:48.594Z,991.97
2018-09-13T03:48:48.520Z,991.94
2018-09-13T03:49:48.447Z,991.99
2018-09-13T03:50:48.377Z,992.01
2018-09-13T03:51:48.296Z,991.98
2018-09-13T03:52:48.223Z,992.04
2018-09-13T03:53:48.149Z,992.07
2018-09-13T03:54:48.075Z,992.07
2018-09-13T03:55:48.001Z,992.05
2018-09-13T03:56:47.977Z,992.06
2018-09-13T03:57:47.855Z,992.07
2018-09-13T03:58:47.777Z,992.06
2018-09-13T03:59:47.704Z,992.09
2018-09-13T04:00:47.630Z,992.12
2018-09-13T04:01:47.556Z,992.12
2018-09-13T04:02:47.481Z,992.13
2018-09-13T04:03:47.407Z,992.14
2018-09-13T04:04:47.335Z,992.11
2018-09-13T04:05:47.264Z,992.10
2018-09-13T04:06:47.184Z,992.10
2018-09-13T04:07:47.110Z,992.12
2018-09-13T04:08:47.036Z,992.14
2018-09-13T04:09:46.963Z,992.17
2018-09-13T04:10:46.888Z,992.17
2018-09-13T04:11:46.813Z,992.20
2018-09-13T04:12:46.741Z,992.16
2018-09-13T04:13:46.666Z,992.17
2018-09-13T04:14:46.642Z,992.14
2018-09-13T04:15:46.520Z,992.14
2018-09-13T04:16:46.443Z,992.12
2018-09-13T04:17:46.369Z,992.13
2018-09-13T04:18:46.345Z,992.16
2018-09-13T04:19:46.220Z,992.19
2018-09-13T04:20:46.246Z,992.18
2018-09-13T04:21:46.072Z,992.18
2018-09-13T04:22:46.033Z,992.18
2018-09-13T04:23:45.925Z,992.18
2018-09-13T04:24:45.853Z,992.16
2018-09-13T04:25:45.774Z,992.15
2018-09-13T04:26:45.701Z,992.19
2018-09-13T04:27:45.628Z,992.20
2018-09-13T04:28:45.553Z,992.23
2018-09-13T04:29:45.484Z,992.21
2018-09-13T04:30:45.405Z,992.16
2018-09-13T04:31:45.331Z,992.11
2018-09-13T04:32:45.307Z,992.07
2018-09-13T04:33:45.183Z,992.04
2018-09-13T04:34:45.108Z,992.09
2018-09-13T04:35:45.210Z,992.09
2018-09-13T04:36:44.962Z,992.09
2018-09-13T04:37:44.888Z,992.07
2018-09-13T04:38:44.812Z,992.08
2018-09-13T04:39:44.739Z,992.08
2018-09-13T04:40:44.664Z,992.12
2018-09-13T04:41:44.592Z,992.17
2018-09-13T04:42:44.517Z,992.14
2018-09-13T04:43:44.442Z,992.24
2018-09-13T04:44:44.371Z,992.22
2018-09-13T04:45:44.296Z,992.22
2018-09-13T04:46:44.220Z,992.28
2018-09-13T04:47:44.146Z,992.30
2018-09-13T04:48:44.074Z,992.32
2018-09-13T04:49:43.997Z,992.24
2018-09-13T04:50:43.975Z,992.30
2018-09-13T04:51:43.851Z,992.24
2018-09-13T04:52:43.777Z,992.32
2018-09-13T04:53:43.704Z,992.33
2018-09-13T04:54:43.628Z,992.29
2018-09-13T04:55:43.555Z,992.32
2018-09-13T04:56:43.480Z,992.24
2018-09-13T04:57:43.408Z,992.22
2018-09-13T04:58:43.331Z,992.21
2018-09-13T04:59:43.259Z,992.19
2018-09-13T05:00:43.186Z,992.14
2018-09-13T05:01:43.111Z,992.13
2018-09-13T05:02:43.036Z,992.14
2018-09-13T05:03:42.963Z,992.12
2018-09-13T05:04:42.889Z,992.13
2018-09-13T05:05:42.815Z,992.04
2018-09-13T05:06:42.833Z,992.09
2018-09-13T05:07:42.666Z,992.04
2018-09-13T05:08:42.694Z,992.04
2018-09-13T05:09:42.519Z,992.07
2018-09-13T05:10:42.444Z,992.04
2018-09-13T05:11:42.372Z,992.07
2018-09-13T05:12:42.358Z,992.07
2018-09-13T05:13:42.223Z,992.15
2018-09-13T05:14:42.149Z,992.14
2018-09-13T05:15:42.077Z,992.14
2018-09-13T05:16:42.002Z,992.14
2018-09-13T05:17:41.928Z,992.11
2018-09-13T05:18:41.853Z,992.12
2018-09-13T05:19:41.779Z,992.12
2018-09-13T05:20:41.706Z,992.10
2018-09-13T05:21:41.633Z,992.13
2018-09-13T05:22:41.558Z,992.12
2018-09-13T05:23:41.484Z,992.14
2018-09-13T05:24:41.411Z,992.16
2018-09-13T05:25:41.337Z,992.16
2018-09-13T05:26:41.313Z,992.18
2018-09-13T05:27:41.190Z,992.16
2018-09-13T05:28:41.116Z,992.22
2018-09-13T05:29:41.042Z,992.22
2018-09-13T05:30:40.968Z,992.24
2018-09-13T05:31:40.929Z,992.24
2018-09-13T05:32:40.820Z,992.31
2018-09-13T05:33:40.749Z,992.27
2018-09-13T05:34:40.673Z,992.29
2018-09-13T05:35:40.599Z,992.29
2018-09-13T05:36:40.526Z,992.29
2018-09-13T05:37:40.452Z,992.31
2018-09-13T05:38:40.419Z,992.30
2018-09-13T05:39:40.305Z,992.31
2018-09-13T05:40:40.232Z,992.33
2018-09-13T05:41:40.161Z,992.37
2018-09-13T05:42:40.083Z,992.38
2018-09-13T05:43:40.011Z,992.37
2018-09-13T05:44:40.023Z,992.42
2018-09-13T05:45:39.863Z,992.41
2018-09-13T05:46:39.789Z,992.41
2018-09-13T05:47:39.717Z,992.40
2018-09-13T05:48:39.645Z,992.38
2018-09-13T05:49:39.570Z,992.34
2018-09-13T05:50:39.497Z,992.30
2018-09-13T05:51:39.423Z,992.27
2018-09-13T05:52:39.349Z,992.24
2018-09-13T05:53:39.275Z,992.29
2018-09-13T05:54:39.201Z,992.25
2018-09-13T05:55:39.128Z,992.28
2018-09-13T05:56:39.057Z,992.28
2018-09-13T05:57:38.983Z,992.26
2018-09-13T05:58:38.908Z,992.27
2018-09-13T05:59:38.838Z,992.36
2018-09-13T06:00:38.763Z,992.32
2018-09-13T06:01:38.692Z,992.35
2018-09-13T06:02:38.668Z,992.29
2018-09-13T06:03:38.541Z,992.26
2018-09-13T06:04:38.470Z,992.20
2018-09-13T06:05:38.395Z,992.23
2018-09-13T06:06:38.322Z,992.20
2018-09-13T06:07:38.249Z,992.16
2018-09-13T06:08:38.176Z,992.14
2018-09-13T06:09:38.103Z,992.15
2018-09-13T06:10:38.030Z,992.16
2018-09-13T06:11:37.956Z,992.19
2018-09-13T06:12:37.885Z,992.17
2018-09-13T06:13:37.850Z,992.23
2018-09-13T06:14:37.738Z,992.21
2018-09-13T06:15:37.665Z,992.24
2018-09-13T06:16:37.592Z,992.28
2018-09-13T06:17:37.518Z,992.30
2018-09-13T06:18:37.446Z,992.29
2018-09-13T06:19:37.408Z,992.25
2018-09-13T06:20:37.351Z,992.25
2018-09-13T06:21:37.229Z,992.23
2018-09-13T06:22:37.156Z,992.27
2018-09-13T06:23:37.084Z,992.29
2018-09-13T06:24:37.010Z,992.30
2018-09-13T06:25:36.938Z,992.30
2018-09-13T06:26:37.166Z,992.29
2018-09-13T06:27:36.793Z,992.31
2018-09-13T06:28:36.719Z,992.33
2018-09-13T06:29:36.775Z,992.39
2018-09-13T06:30:36.577Z,992.36
2018-09-13T06:31:36.502Z,992.33
2018-09-13T06:32:36.433Z,992.31
2018-09-13T06:33:36.360Z,992.31
2018-09-13T06:34:36.285Z,992.30
2018-09-13T06:35:36.214Z,992.29
2018-09-13T06:36:36.141Z,992.28
2018-09-13T06:37:36.069Z,992.35
2018-09-13T06:38:36.196Z,992.33
2018-09-13T06:39:35.923Z,992.35
2018-09-13T06:40:35.852Z,992.36
2018-09-13T06:41:35.781Z,992.34
2018-09-13T06:42:35.707Z,992.37
2018-09-13T06:43:35.735Z,992.40
2018-09-13T06:44:35.563Z,992.39
2018-09-13T06:45:35.491Z,992.36
2018-09-13T06:46:35.417Z,992.34
2018-09-13T06:47:35.346Z,992.29
2018-09-13T06:48:35.385Z,992.33
2018-09-13T06:49:35.203Z,992.33
2018-09-13T06:50:35.130Z,992.34
2018-09-13T06:51:35.057Z,992.41
2018-09-13T06:52:34.985Z,992.44
2018-09-13T06:53:34.913Z,992.45
2018-09-13T06:54:34.843Z,992.44
2018-09-13T06:55:34.796Z,992.44
2018-09-13T06:56:34.697Z,992.43
2018-09-13T06:57:34.627Z,992.44
2018-09-13T06:58:34.553Z,992.43
2018-09-13T06:59:34.580Z,992.44
2018-09-13T07:00:34.409Z,992.41
2018-09-13T07:01:34.337Z,992.41
2018-09-13T07:02:34.331Z,992.46
2018-09-13T07:03:34.193Z,992.41
2018-09-13T07:04:34.120Z,992.43
2018-09-13T07:07:16.463Z,992.49
2018-09-13T07:08:16.391Z,992.52
2018-09-13T07:09:16.374Z,992.55
2018-09-13T07:10:16.246Z,992.51
2018-09-13T07:11:16.224Z,992.55
2018-09-13T07:12:16.102Z,992.53
2018-09-13T07:13:16.029Z,992.55
2018-09-13T07:14:15.958Z,992.51
2018-09-13T07:15:15.885Z,992.53
2018-09-13T07:16:15.814Z,992.57
2018-09-13T07:17:15.742Z,992.52
2018-09-13T07:18:15.669Z,992.51
2018-09-13T07:19:15.599Z,992.53
2018-09-13T07:20:18.349Z,992.55
2018-09-13T07:21:15.453Z,992.57
2018-09-13T07:22:15.381Z,992.59
2018-09-13T07:23:15.310Z,992.60
2018-09-13T07:24:15.238Z,992.54
2018-09-13T07:25:15.164Z,992.54
2018-09-13T07:26:15.095Z,992.57
2018-09-13T07:27:15.022Z,992.58
2018-09-13T07:28:14.950Z,992.59
2018-09-13T07:29:14.878Z,992.61
2018-09-13T07:30:14.810Z,992.62
2018-09-13T07:31:14.735Z,992.61
2018-09-13T07:32:14.664Z,992.58
2018-09-13T07:33:14.592Z,992.63
2018-09-13T07:34:14.521Z,992.59
2018-09-13T07:35:14.449Z,992.62
2018-09-13T07:36:14.379Z,992.63
2018-09-13T07:37:14.305Z,992.64
2018-09-13T07:38:14.234Z,992.66
2018-09-13T07:39:14.165Z,992.68
2018-09-13T07:40:14.092Z,992.68
2018-09-13T07:41:14.020Z,992.67
2018-09-13T07:42:13.950Z,992.65
2018-09-13T07:43:13.877Z,992.64
2018-09-13T07:44:13.807Z,992.63
2018-09-13T07:45:13.735Z,992.62
2018-09-13T07:46:13.667Z,992.62
2018-09-13T07:47:13.592Z,992.62
2018-09-13T07:48:13.522Z,992.58
2018-09-13T07:49:13.507Z,992.56
2018-09-13T07:50:13.377Z,992.54
2018-09-13T07:51:13.313Z,992.55
2018-09-13T07:52:13.235Z,992.57
2018-09-13T07:53:13.163Z,992.57
2018-09-13T07:54:13.091Z,992.61
2018-09-13T07:55:13.021Z,992.63
2018-09-13T07:56:12.952Z,992.65
2018-09-13T07:57:12.878Z,992.69
2018-09-13T07:58:12.807Z,992.71
2018-09-13T07:59:12.735Z,992.71
2018-09-13T08:00:12.666Z,992.74
2018-09-13T08:01:12.595Z,992.74
2018-09-13T08:02:12.520Z,992.78
2018-09-13T08:03:12.451Z,992.80
2018-09-13T08:04:12.378Z,992.80
2018-09-13T08:05:12.447Z,992.81
2018-09-13T08:06:12.234Z,992.80
2018-09-13T08:07:12.164Z,992.84
2018-09-13T08:08:12.094Z,992.90
2018-09-13T08:09:12.021Z,992.90
2018-09-13T08:10:11.949Z,992.94
2018-09-13T08:11:11.878Z,992.93
2018-09-13T08:12:11.939Z,992.93
2018-09-13T08:13:11.736Z,992.93
2018-09-13T08:14:11.665Z,992.92
2018-09-13T08:15:11.596Z,992.93
2018-09-13T08:16:11.525Z,992.91
2018-09-13T08:17:11.452Z,992.95
2018-09-13T08:18:11.380Z,992.95
2018-09-13T08:19:11.317Z,992.95
2018-09-13T08:20:11.240Z,992.99
2018-09-13T08:21:11.181Z,992.96
2018-09-13T08:22:11.143Z,992.98
2018-09-13T08:23:11.028Z,992.97
2018-09-13T08:24:10.956Z,992.95
2018-09-13T08:25:10.886Z,992.92
2018-09-13T08:26:10.813Z,992.95
2018-09-13T08:27:10.784Z,992.91
2018-09-13T08:28:10.674Z,992.91
2018-09-13T08:29:10.600Z,992.90
2018-09-13T08:30:10.529Z,992.90
2018-09-13T08:31:10.458Z,992.93
2018-09-13T08:32:10.390Z,992.98
2018-09-13T08:33:10.373Z,993.00
2018-09-13T08:34:10.246Z,992.99
2018-09-13T08:35:10.323Z,992.99
2018-09-13T08:36:10.106Z,992.95
2018-09-13T08:37:10.044Z,992.97
2018-09-13T08:38:09.960Z,993.03
2018-09-13T08:39:09.893Z,993.08
2018-09-13T08:40:09.892Z,993.10
2018-09-13T08:41:09.797Z,993.14
2018-09-13T08:42:09.680Z,993.17
2018-09-13T08:43:09.676Z,993.21
2018-09-13T08:44:09.534Z,993.24
2018-09-13T08:45:09.462Z,993.24
2018-09-13T08:46:09.393Z,993.24
2018-09-13T08:47:09.323Z,993.25
2018-09-13T08:48:09.256Z,993.24
2018-09-13T08:49:09.180Z,993.24
2018-09-13T08:50:09.109Z,993.22
2018-09-13T08:51:09.038Z,993.23
2018-09-13T08:52:09.096Z,993.19
2018-09-13T08:53:08.949Z,993.20
2018-09-13T08:54:08.827Z,993.19
2018-09-13T08:55:08.801Z,993.19
2018-09-13T08:56:08.686Z,993.19
2018-09-13T08:57:08.614Z,993.17
2018-09-13T08:58:08.545Z,993.12
2018-09-13T08:59:08.475Z,993.14
2018-09-13T09:00:08.404Z,993.14
2018-09-13T09:01:08.332Z,993.17
2018-09-13T09:02:08.266Z,993.16
2018-09-13T09:03:08.192Z,993.19
2018-09-13T09:04:08.122Z,993.21
2018-09-13T09:05:08.052Z,993.17
2018-09-13T09:06:08.009Z,993.21
2018-09-13T09:07:07.910Z,993.18
2018-09-13T09:08:07.891Z,993.17
2018-09-13T09:09:07.771Z,993.13
2018-09-13T09:10:07.700Z,993.15
2018-09-13T09:11:07.630Z,993.14
2018-09-13T09:12:07.562Z,993.08
2018-09-13T09:14:07.420Z,993.05
2018-09-13T09:15:07.349Z,993.02
2018-09-13T09:16:07.280Z,992.99
2018-09-13T09:17:07.210Z,992.93
2018-09-13T09:18:07.138Z,992.95
2018-09-13T09:19:07.069Z,992.94
2018-09-13T09:20:07.041Z,992.95
2018-09-13T09:21:06.934Z,992.96
2018-09-13T09:22:06.858Z,992.96
2018-09-13T09:23:06.788Z,992.95
2018-09-13T09:24:06.764Z,992.92
2018-09-13T09:25:06.698Z,992.93
2018-09-13T09:26:06.578Z,992.90
2018-09-13T09:27:06.509Z,992.94
2018-09-13T09:28:06.439Z,992.99
2018-09-13T09:29:06.371Z,992.97
2018-09-13T09:30:06.348Z,992.97
2018-09-13T09:31:06.228Z,993.01
2018-09-13T09:32:06.158Z,993.01
2018-09-13T09:33:06.086Z,992.94
2018-09-13T09:34:06.016Z,992.95
2018-09-13T09:35:05.973Z,992.99
2018-09-13T09:36:05.876Z,993.01
2018-09-13T09:37:05.806Z,992.99
2018-09-13T09:38:05.736Z,992.99
2018-09-13T09:39:05.665Z,993.03
2018-09-13T09:40:05.596Z,993.03
2018-09-13T09:41:05.525Z,993.01
2018-09-13T09:42:05.456Z,993.01
2018-09-13T09:43:05.389Z,992.98
2018-09-13T09:44:05.396Z,993.02
2018-09-13T09:45:05.242Z,992.99
2018-09-13T09:46:05.175Z,993.02
2018-09-13T09:47:05.104Z,993.05
2018-09-13T09:48:05.076Z,993.06
2018-09-13T09:49:04.962Z,993.06
2018-09-13T09:50:04.925Z,993.05
2018-09-13T09:51:04.823Z,993.10
2018-09-13T09:52:04.866Z,993.08
2018-09-13T09:53:04.685Z,993.10
2018-09-13T09:54:04.612Z,993.09
2018-09-13T09:55:04.544Z,993.08
2018-09-13T09:56:04.486Z,993.08
2018-09-13T09:57:04.402Z,993.03
2018-09-13T09:58:04.396Z,993.04
2018-09-13T09:59:04.261Z,993.04
2018-09-13T10:00:04.194Z,993.08
2018-09-13T10:01:04.123Z,993.11
2018-09-13T10:02:04.102Z,993.13
2018-09-13T10:03:04.025Z,993.20
2018-09-13T10:04:03.920Z,993.16
2018-09-13T10:05:03.843Z,993.18
2018-09-13T10:06:03.773Z,993.18
2018-09-13T10:07:03.754Z,993.13
2018-09-13T10:11:14.327Z,993.09
2018-09-13T10:12:14.256Z,993.06
2018-09-13T10:13:14.184Z,993.05
2018-09-13T10:14:14.114Z,993.04
2018-09-13T10:15:14.141Z,993.03
2018-09-13T10:16:14.032Z,993.08
2018-09-13T10:17:13.903Z,993.04
2018-09-13T10:18:13.833Z,993.05
2018-09-13T10:19:13.764Z,993.07
2018-09-13T10:20:13.692Z,993.06
2018-09-13T10:21:13.626Z,993.02
2018-09-13T10:22:13.554Z,992.95
2018-09-13T10:23:13.484Z,992.92
2018-09-13T10:24:13.412Z,992.91
2018-09-13T10:25:13.342Z,992.92
2018-09-13T10:26:13.273Z,992.91
2018-09-13T10:27:13.209Z,992.92
2018-09-13T10:28:13.131Z,992.94
2018-09-13T10:29:13.129Z,992.93
2018-09-13T10:30:12.992Z,992.95
2018-09-13T10:31:12.922Z,992.96
2018-09-13T10:32:12.852Z,992.96
2018-09-13T10:33:12.782Z,992.97
2018-09-13T10:34:12.811Z,992.96
2018-09-13T10:35:12.642Z,992.96
2018-09-13T10:36:12.574Z,992.95
2018-09-13T10:37:12.501Z,992.95
2018-09-13T10:38:12.432Z,992.95
2018-09-13T10:39:12.362Z,992.99
2018-09-13T10:40:12.290Z,993.00
2018-09-13T10:41:12.221Z,993.02
2018-09-13T10:42:12.151Z,993.08
2018-09-13T10:43:12.083Z,993.07
2018-09-13T10:44:12.013Z,993.11
2018-09-13T10:45:11.945Z,993.12
2018-09-13T10:46:11.873Z,993.11
2018-09-13T10:47:11.805Z,993.12
2018-09-13T10:48:11.821Z,993.08
2018-09-13T10:49:11.663Z,993.11
2018-09-13T10:50:11.595Z,993.05
2018-09-13T10:51:11.525Z,993.07
2018-09-13T10:52:11.524Z,993.06
2018-09-13T10:53:11.386Z,993.06
2018-09-13T10:54:11.317Z,992.99
2018-09-13T10:55:11.249Z,992.98
2018-09-13T10:56:11.177Z,992.98
2018-09-13T10:57:11.108Z,992.96
2018-09-13T10:58:11.038Z,992.93
2018-09-13T10:59:11.083Z,992.87
2018-09-13T11:00:11.001Z,992.83
2018-09-13T11:01:10.831Z,992.81
2018-09-13T11:02:10.761Z,992.82
2018-09-13T11:03:10.691Z,992.82
2018-09-13T11:04:10.746Z,992.89
2018-09-13T11:05:10.552Z,992.94
2018-09-13T11:06:10.482Z,992.97
2018-09-13T11:07:10.413Z,993.03
2018-09-13T11:08:10.343Z,993.04
2018-09-13T11:09:10.275Z,993.07
2018-09-13T11:10:10.207Z,993.07
2018-09-13T11:11:10.234Z,993.07
2018-09-13T11:12:10.117Z,993.07
2018-09-13T11:13:09.997Z,993.09
2018-09-13T11:14:09.930Z,993.10
2018-09-13T11:15:09.859Z,993.07
2018-09-13T11:16:09.789Z,993.04
2018-09-13T11:17:09.720Z,993.09
2018-09-13T11:18:09.652Z,993.08
2018-09-13T11:19:09.587Z,993.02
2018-09-13T11:20:09.515Z,993.00
2018-09-13T11:21:09.444Z,993.01
2018-09-13T11:22:09.379Z,992.97
2018-09-13T11:23:09.357Z,993.02
2018-09-13T11:24:09.239Z,993.04
2018-09-13T11:25:09.170Z,993.00
2018-09-13T11:26:09.102Z,992.99
2018-09-13T11:27:09.033Z,992.97
2018-09-13T11:28:08.964Z,992.94
2018-09-13T11:29:11.929Z,992.93
2018-09-13T11:30:08.828Z,992.92
2018-09-13T11:31:08.760Z,992.93
2018-09-13T11:32:11.726Z,992.94
2018-09-13T11:33:08.623Z,992.97
2018-09-13T11:34:08.554Z,992.93
2018-09-13T11:35:08.484Z,992.93
2018-09-13T11:36:11.035Z,992.86
2018-09-13T11:37:08.346Z,992.81
2018-09-13T11:38:08.528Z,992.78
2018-09-13T11:39:08.212Z,992.72
2018-09-13T11:40:08.166Z,992.75
2018-09-13T11:41:08.203Z,992.83
2018-09-13T11:42:08.004Z,992.89
2018-09-13T11:43:07.935Z,992.95
2018-09-13T11:44:07.865Z,992.98
2018-09-13T11:45:07.796Z,992.97
2018-09-13T11:46:07.728Z,992.98
2018-09-13T11:47:07.661Z,992.93
2018-09-13T11:48:07.591Z,992.92
2018-09-13T11:49:07.524Z,992.92
2018-09-13T11:50:07.456Z,992.87
2018-09-13T11:51:07.389Z,992.86
2018-09-13T11:52:07.319Z,992.82
2018-09-13T11:53:07.300Z,992.82
2018-09-13T11:54:07.293Z,992.85
2018-09-13T11:55:07.116Z,992.83
2018-09-13T11:56:07.046Z,992.84
2018-09-13T11:57:06.979Z,992.85
2018-09-13T11:58:06.911Z,992.81
2018-09-13T11:59:06.842Z,992.79
2018-09-13T12:00:06.775Z,992.77
2018-09-13T12:01:06.723Z,992.76
2018-09-13T12:02:06.791Z,992.79
2018-09-13T12:03:06.572Z,992.78
2018-09-13T12:04:06.501Z,992.80
2018-09-13T12:05:06.434Z,992.83
2018-09-13T12:06:06.365Z,992.79
2018-09-13T12:07:06.298Z,992.75
2018-09-13T12:08:06.228Z,992.75
2018-09-13T12:09:06.261Z,992.70
2018-09-13T12:10:06.092Z,992.67
2018-09-13T12:11:06.030Z,992.65
2018-09-13T12:12:05.955Z,992.67
2018-09-13T12:13:05.906Z,992.73
2018-09-13T12:14:05.819Z,992.71
2018-09-13T12:15:05.750Z,992.77
2018-09-13T12:16:05.681Z,992.79
2018-09-13T12:17:05.611Z,992.85
2018-09-13T12:18:05.563Z,992.82
2018-09-13T12:19:05.483Z,992.81
2018-09-13T12:20:05.405Z,992.80
2018-09-13T12:21:05.337Z,992.78
2018-09-13T12:22:05.269Z,992.72
2018-09-13T12:23:05.200Z,992.70
2018-09-13T12:24:05.130Z,992.68
2018-09-13T12:25:05.064Z,992.66
2018-09-13T12:26:04.992Z,992.72
2018-09-13T12:27:04.928Z,992.73
2018-09-13T12:28:04.854Z,992.76
2018-09-13T12:29:04.786Z,992.77
2018-09-13T12:30:04.715Z,992.74
2018-09-13T12:31:04.647Z,992.80
2018-09-13T12:32:04.578Z,992.78
2018-09-13T12:33:04.511Z,992.84
2018-09-13T12:34:04.440Z,992.81
2018-09-13T12:35:04.371Z,992.82
2018-09-13T12:36:04.351Z,992.74